Time;durP1;ratioP1;P1;durP2;ratioP2;P2;SDS_P1;SDS_P2;PMS_P1;PMS_P2;Temp;Humidity;BMP_temperature;BMP_pressure;BME280_temperature;BME280_humidity;BME280_pressure;Samples;Min_cycle;Max_cycle;Signal;HPM_P1;HPM_P2
2022/07/08 00:02:15;;;;;;;13.03;3.27;;;14.60;99.90;;;;;;5037287;28;20322;-86
2022/07/08 00:04:42;;;;;;;13.53;2.90;;;14.60;99.90;;;;;;5039010;28;20620;-86
2022/07/08 00:07:09;;;;;;;13.63;3.30;;;14.60;99.90;;;;;;5037114;28;20231;-85
2022/07/08 00:09:35;;;;;;;9.83;2.87;;;14.60;99.90;;;;;;5036915;28;20226;-81
2022/07/08 00:12:02;;;;;;;8.73;2.63;;;14.60;99.90;;;;;;5040790;28;20209;-83
2022/07/08 00:14:30;;;;;;;10.57;2.57;;;14.60;99.90;;;;;;5040177;28;20231;-86
2022/07/08 00:16:58;;;;;;;13.03;3.10;;;14.60;99.90;;;;;;5038544;28;20235;-86
2022/07/08 00:19:25;;;;;;;9.47;2.80;;;14.60;99.90;;;;;;5025325;28;20232;-85
2022/07/08 00:21:52;;;;;;;16.73;3.20;;;14.60;99.90;;;;;;5040894;28;20885;-85
2022/07/08 00:24:19;;;;;;;8.50;2.90;;;14.60;99.90;;;;;;5036886;28;20234;-84
2022/07/08 00:26:46;;;;;;;10.93;2.87;;;14.60;99.90;;;;;;5040958;28;20226;-85
2022/07/08 00:29:13;;;;;;;11.93;2.70;;;14.50;99.90;;;;;;5027817;28;20246;-85
2022/07/08 00:31:41;;;;;;;8.37;2.40;;;14.50;99.90;;;;;;5042407;28;20222;-86
2022/07/08 00:34:08;;;;;;;11.73;3.40;;;14.50;99.90;;;;;;5025833;28;20260;-86
2022/07/08 00:36:35;;;;;;;8.70;2.60;;;14.50;99.90;;;;;;5039401;28;20739;-86
2022/07/08 00:39:02;;;;;;;11.10;3.03;;;14.50;99.90;;;;;;5040408;28;20246;-85
2022/07/08 00:41:30;;;;;;;12.53;3.37;;;14.50;99.90;;;;;;5028393;28;20224;-85
2022/07/08 00:43:57;;;;;;;10.50;2.63;;;14.50;99.90;;;;;;5035232;28;20308;-84
2022/07/08 00:46:24;;;;;;;10.40;3.47;;;14.50;99.90;;;;;;5040614;28;20217;-84
2022/07/08 00:48:52;;;;;;;11.40;3.10;;;14.50;99.90;;;;;;5037650;28;20221;-86
2022/07/08 00:51:19;;;;;;;14.77;3.10;;;14.40;99.90;;;;;;5030929;28;20219;-87
2022/07/08 00:53:50;;;;;;;11.33;3.10;;;14.40;99.90;;;;;;5052595;28;20239;-86
2022/07/08 00:56:17;;;;;;;13.30;3.33;;;14.40;99.90;;;;;;5031800;28;20231;-87
2022/07/08 00:58:44;;;;;;;14.77;3.03;;;14.40;99.90;;;;;;5030214;28;20243;-86
2022/07/08 01:01:11;;;;;;;12.20;2.93;;;14.40;99.90;;;;;;5032574;28;20224;-86
2022/07/08 01:03:38;;;;;;;10.47;2.60;;;14.30;99.90;;;;;;5039367;28;20235;-85
2022/07/08 01:06:06;;;;;;;14.97;2.90;;;14.30;99.90;;;;;;5033050;28;20239;-85
2022/07/08 01:08:33;;;;;;;12.30;2.70;;;14.30;99.90;;;;;;5037102;28;20307;-84
2022/07/08 01:11:00;;;;;;;10.83;3.00;;;14.30;99.90;;;;;;5035540;28;20309;-84
2022/07/08 01:13:27;;;;;;;10.90;2.70;;;14.30;99.90;;;;;;5037549;28;20721;-86
2022/07/08 01:15:54;;;;;;;9.17;2.40;;;14.20;99.90;;;;;;5028469;28;20223;-84
2022/07/08 01:18:23;;;;;;;9.43;2.43;;;14.20;99.90;;;;;;5034933;28;20241;-84
2022/07/08 01:20:51;;;;;;;10.50;2.90;;;14.20;99.90;;;;;;5032109;28;20239;-85
2022/07/08 01:23:18;;;;;;;14.70;3.00;;;14.20;99.90;;;;;;5032224;28;20673;-85
2022/07/08 01:25:46;;;;;;;17.40;3.10;;;14.20;99.90;;;;;;5036124;28;20239;-85
2022/07/08 01:28:12;;;;;;;12.00;3.10;;;14.20;99.90;;;;;;5039617;28;20970;-85
2022/07/08 01:30:39;;;;;;;14.77;2.90;;;14.20;99.90;;;;;;5038574;28;20229;-85
2022/07/08 01:33:06;;;;;;;10.73;2.80;;;14.10;99.90;;;;;;5053694;28;20221;-85
2022/07/08 01:35:33;;;;;;;8.10;2.43;;;14.10;99.90;;;;;;5037363;28;20230;-85
2022/07/08 01:38:01;;;;;;;12.57;2.70;;;14.10;99.90;;;;;;5041007;28;20314;-85
2022/07/08 01:40:27;;;;;;;11.73;3.20;;;14.10;99.90;;;;;;5021954;28;20234;-85
2022/07/08 01:42:54;;;;;;;11.83;3.13;;;14.10;99.90;;;;;;5038244;28;20228;-85
2022/07/08 01:45:21;;;;;;;9.17;2.07;;;14.10;99.90;;;;;;5031756;28;20247;-86
2022/07/08 01:47:47;;;;;;;11.83;2.40;;;14.10;99.90;;;;;;5032434;28;20223;-85
2022/07/08 01:50:14;;;;;;;10.13;2.70;;;14.00;99.90;;;;;;5039488;28;20763;-86
2022/07/08 01:52:41;;;;;;;13.60;3.20;;;14.10;99.90;;;;;;5040153;28;20229;-86
2022/07/08 01:55:09;;;;;;;7.67;2.60;;;14.10;99.90;;;;;;5040522;28;20236;-86
2022/07/08 01:57:36;;;;;;;14.33;3.17;;;14.10;99.90;;;;;;5040343;28;20239;-86
2022/07/08 02:00:05;;;;;;;8.27;2.23;;;14.10;99.90;;;;;;5030466;28;20227;-86
2022/07/08 02:02:37;;;;;;;8.00;2.40;;;14.10;99.90;;;;;;5033924;28;20290;-86
2022/07/08 02:05:04;;;;;;;10.67;2.30;;;14.10;99.90;;;;;;5035289;28;20219;-85
2022/07/08 02:07:32;;;;;;;9.17;2.07;;;14.10;99.90;;;;;;5040382;28;20233;-85
2022/07/08 02:09:59;;;;;;;10.10;2.77;;;14.00;99.90;;;;;;5039692;28;20475;-87
2022/07/08 02:12:26;;;;;;;11.00;2.50;;;14.00;99.90;;;;;;5042175;28;21005;-85
2022/07/08 02:14:54;;;;;;;11.63;2.40;;;14.00;99.90;;;;;;5044030;28;20315;-86
2022/07/08 02:17:23;;;;;;;11.47;2.60;;;14.00;99.90;;;;;;5030326;28;20225;-87
2022/07/08 02:19:50;;;;;;;9.50;2.10;;;14.00;99.90;;;;;;5060143;28;20221;-86
2022/07/08 02:22:17;;;;;;;11.10;2.80;;;14.00;99.90;;;;;;5038728;28;20230;-86
2022/07/08 02:24:43;;;;;;;10.20;2.60;;;14.00;99.90;;;;;;5042454;28;20284;-86
2022/07/08 02:27:10;;;;;;;11.43;2.40;;;14.00;99.90;;;;;;5042320;28;20222;-86
2022/07/08 02:29:38;;;;;;;11.07;2.07;;;14.00;99.90;;;;;;5043937;28;20227;-85
2022/07/08 02:32:05;;;;;;;8.00;2.20;;;14.00;99.90;;;;;;5039054;28;20308;-85
2022/07/08 02:34:32;;;;;;;8.73;2.30;;;14.00;99.90;;;;;;5041159;28;20241;-85
2022/07/08 02:36:58;;;;;;;11.33;2.00;;;14.00;99.90;;;;;;5039905;28;20236;-85
2022/07/08 02:39:25;;;;;;;9.27;2.07;;;14.00;99.90;;;;;;5043586;28;20673;-86
2022/07/08 02:41:52;;;;;;;10.67;2.20;;;14.00;99.90;;;;;;5039095;28;20228;-87
2022/07/08 02:44:19;;;;;;;9.33;2.17;;;14.00;99.90;;;;;;5036560;28;20227;-85
2022/07/08 02:46:47;;;;;;;9.33;1.97;;;14.00;99.90;;;;;;5040233;28;20222;-88
2022/07/08 02:49:14;;;;;;;8.73;2.23;;;14.00;99.90;;;;;;5036425;28;20755;-85
2022/07/08 02:51:41;;;;;;;7.17;2.20;;;14.00;99.90;;;;;;5039015;28;21524;-85
2022/07/08 02:54:08;;;;;;;5.83;1.77;;;14.00;99.90;;;;;;5035802;28;20692;-87
2022/07/08 02:56:36;;;;;;;8.40;2.10;;;14.00;99.90;;;;;;5039256;28;20875;-86
2022/07/08 02:59:04;;;;;;;9.43;2.00;;;13.90;99.90;;;;;;5041573;28;20310;-86
2022/07/08 03:01:31;;;;;;;7.30;2.10;;;14.00;99.90;;;;;;5041348;28;20909;-85
2022/07/08 03:03:59;;;;;;;5.90;1.87;;;13.90;99.90;;;;;;5040079;28;20241;-87
2022/07/08 03:06:26;;;;;;;8.90;1.80;;;13.90;99.90;;;;;;5038509;28;20298;-87
2022/07/08 03:08:53;;;;;;;11.17;2.80;;;13.90;99.90;;;;;;5040168;28;20226;-87
2022/07/08 03:11:20;;;;;;;7.83;2.40;;;13.90;99.90;;;;;;5040059;28;20233;-86
2022/07/08 03:13:46;;;;;;;10.17;2.13;;;13.90;99.90;;;;;;5033756;28;20230;-86
2022/07/08 03:16:13;;;;;;;10.07;2.27;;;13.90;99.90;;;;;;5033424;28;20236;-86
2022/07/08 03:18:40;;;;;;;6.37;1.87;;;13.90;99.90;;;;;;5037926;28;20227;-87
2022/07/08 03:21:08;;;;;;;8.23;2.17;;;13.90;99.90;;;;;;5038194;28;20247;-87
2022/07/08 03:23:35;;;;;;;6.67;1.80;;;13.90;99.90;;;;;;5035683;28;20232;-86
2022/07/08 03:26:02;;;;;;;11.23;2.43;;;13.90;99.90;;;;;;5035140;28;20322;-86
2022/07/08 03:28:29;;;;;;;9.60;2.50;;;13.90;99.90;;;;;;5049959;28;20230;-86
2022/07/08 03:30:55;;;;;;;10.27;2.10;;;13.90;99.90;;;;;;5051402;28;20222;-86
2022/07/08 03:33:22;;;;;;;6.70;2.20;;;13.90;99.90;;;;;;5039793;28;20218;-86
2022/07/08 03:35:49;;;;;;;7.77;1.60;;;13.90;99.90;;;;;;5045787;28;20233;-86
2022/07/08 03:38:17;;;;;;;8.10;2.57;;;13.90;99.90;;;;;;5042503;28;20220;-87
2022/07/08 03:43:28;;;;;;;7.77;1.90;;;13.90;99.90;;;;;;5023419;28;20684;-85
2022/07/08 03:45:55;;;;;;;6.43;1.77;;;13.90;99.90;;;;;;5059127;28;20228;-85
2022/07/08 03:48:21;;;;;;;9.27;2.10;;;13.90;99.90;;;;;;5060799;28;20273;-86
2022/07/08 03:50:48;;;;;;;10.67;2.00;;;13.90;99.90;;;;;;5061682;28;20235;-84
2022/07/08 03:53:16;;;;;;;9.53;2.40;;;13.90;99.90;;;;;;5071440;28;20230;-83
2022/07/08 03:55:43;;;;;;;11.03;2.23;;;13.80;99.90;;;;;;5041284;28;20608;-84
2022/07/08 03:58:10;;;;;;;6.37;1.80;;;13.80;99.90;;;;;;5039015;28;20224;-84
2022/07/08 04:00:36;;;;;;;7.20;2.00;;;13.80;99.90;;;;;;5042458;28;20240;-84
2022/07/08 04:03:03;;;;;;;7.27;2.00;;;13.80;99.90;;;;;;5034755;28;20304;-84
2022/07/08 04:05:30;;;;;;;9.63;2.00;;;13.80;99.90;;;;;;5039100;28;20244;-84
2022/07/08 04:07:57;;;;;;;8.30;2.27;;;13.80;99.90;;;;;;5053086;28;20221;-85
2022/07/08 04:10:25;;;;;;;10.30;2.00;;;13.90;99.90;;;;;;5039396;28;20686;-86
2022/07/08 04:12:52;;;;;;;8.20;2.03;;;13.90;99.90;;;;;;5076277;28;20233;-86
2022/07/08 04:15:18;;;;;;;9.27;2.33;;;14.00;99.90;;;;;;5041138;28;20234;-86
2022/07/08 04:17:45;;;;;;;9.73;2.17;;;13.90;99.90;;;;;;5044166;28;20229;-86
2022/07/08 04:20:12;;;;;;;10.30;2.17;;;14.00;99.90;;;;;;5063040;28;20344;-85
2022/07/08 04:22:39;;;;;;;16.63;2.50;;;14.00;99.90;;;;;;5046548;28;20215;-86
2022/07/08 04:25:07;;;;;;;10.07;2.80;;;14.00;99.90;;;;;;5042954;28;20230;-85
2022/07/08 04:27:35;;;;;;;10.83;2.30;;;14.10;99.90;;;;;;5055714;28;20407;-82
2022/07/08 04:30:03;;;;;;;13.53;2.70;;;14.10;99.90;;;;;;5046459;28;20308;-83
2022/07/08 04:32:29;;;;;;;7.30;2.33;;;14.10;99.90;;;;;;5071814;28;20698;-84
2022/07/08 04:34:58;;;;;;;6.83;2.30;;;14.10;99.90;;;;;;5043589;28;20227;-85
2022/07/08 04:37:25;;;;;;;9.37;2.40;;;14.10;99.90;;;;;;5054458;28;20313;-81
2022/07/08 04:39:52;;;;;;;9.50;2.00;;;14.10;99.90;;;;;;5040883;28;20259;-86
2022/07/08 04:42:18;;;;;;;8.53;2.23;;;14.10;99.90;;;;;;5058774;28;20226;-85
2022/07/08 04:44:47;;;;;;;10.53;2.73;;;14.20;99.90;;;;;;5070577;28;20231;-84
2022/07/08 04:47:13;;;;;;;6.37;1.97;;;14.20;99.90;;;;;;5064114;28;20250;-84
2022/07/08 04:49:40;;;;;;;9.47;2.60;;;14.20;99.90;;;;;;5059762;28;20234;-86
2022/07/08 04:52:07;;;;;;;7.97;1.97;;;14.20;99.90;;;;;;5066679;28;20227;-86
2022/07/08 04:54:34;;;;;;;9.60;2.20;;;14.10;99.90;;;;;;5067039;28;20234;-84
2022/07/08 04:57:01;;;;;;;7.77;2.10;;;14.20;99.90;;;;;;5083612;28;21024;-86
2022/07/08 04:59:27;;;;;;;9.90;1.93;;;14.10;99.90;;;;;;5068061;28;20301;-86
2022/07/08 05:01:55;;;;;;;10.83;2.30;;;14.10;99.90;;;;;;5066654;28;20299;-85
2022/07/08 05:04:22;;;;;;;8.07;2.20;;;14.00;99.90;;;;;;5066249;28;20333;-85
2022/07/08 05:06:49;;;;;;;13.17;2.20;;;14.10;99.90;;;;;;5083805;28;20236;-86
2022/07/08 05:09:16;;;;;;;12.73;2.80;;;14.00;99.90;;;;;;5066225;28;20223;-85
2022/07/08 05:11:42;;;;;;;9.43;2.73;;;14.00;99.90;;;;;;5066946;28;20228;-85
2022/07/08 05:14:13;;;;;;;12.90;2.50;;;14.00;99.90;;;;;;5064602;28;20647;-86
2022/07/08 05:16:39;;;;;;;7.93;2.00;;;13.90;99.90;;;;;;5063286;28;20227;-85
2022/07/08 05:19:07;;;;;;;13.70;2.57;;;14.00;99.90;;;;;;5061148;28;20261;-86
2022/07/08 05:21:36;;;;;;;7.93;1.80;;;13.90;99.90;;;;;;5059334;28;20221;-86
2022/07/08 05:24:03;;;;;;;9.50;2.63;;;14.00;99.90;;;;;;5068420;28;20533;-85
2022/07/08 05:26:30;;;;;;;9.77;1.70;;;13.90;99.90;;;;;;5066704;28;20249;-83
2022/07/08 05:28:56;;;;;;;5.90;1.97;;;13.90;99.90;;;;;;5070358;28;20222;-82
2022/07/08 05:31:23;;;;;;;9.07;1.90;;;14.00;99.90;;;;;;5063333;28;20250;-84
2022/07/08 05:33:56;;;;;;;9.50;2.10;;;14.00;99.90;;;;;;5056971;28;20228;-84
2022/07/08 05:36:25;;;;;;;8.50;1.97;;;14.00;99.90;;;;;;5076781;28;20232;-84
2022/07/08 05:38:51;;;;;;;9.57;1.77;;;14.00;99.90;;;;;;5057088;28;20254;-85
2022/07/08 05:41:18;;;;;;;5.57;1.83;;;14.10;99.90;;;;;;5064148;28;20243;-85
2022/07/08 05:43:45;;;;;;;9.67;1.90;;;14.20;99.90;;;;;;5074039;28;20225;-85
2022/07/08 05:46:12;;;;;;;8.97;2.37;;;14.30;99.90;;;;;;5063381;28;20936;-85
2022/07/08 05:48:38;;;;;;;6.37;1.90;;;14.40;99.90;;;;;;5065971;28;20232;-85
2022/07/08 05:51:05;;;;;;;7.23;2.30;;;14.50;99.90;;;;;;5064105;28;20650;-84
2022/07/08 05:53:33;;;;;;;7.03;2.10;;;14.50;99.90;;;;;;5066293;28;20235;-85
2022/07/08 05:56:00;;;;;;;8.47;2.87;;;14.50;99.90;;;;;;5060218;28;20316;-84
2022/07/08 05:58:27;;;;;;;7.67;2.00;;;14.60;99.90;;;;;;5079256;28;20224;-84
2022/07/08 06:00:53;;;;;;;7.43;1.77;;;14.60;99.90;;;;;;5054573;28;20235;-84
2022/07/08 06:03:20;;;;;;;10.93;2.70;;;14.60;99.90;;;;;;5049490;28;20720;-84
2022/07/08 06:05:47;;;;;;;11.80;2.53;;;14.60;99.90;;;;;;5035826;28;20300;-85
2022/07/08 06:08:14;;;;;;;11.70;2.50;;;14.70;99.90;;;;;;5057676;28;20603;-85
2022/07/08 06:10:42;;;;;;;7.63;2.23;;;14.80;99.90;;;;;;5056548;28;20232;-84
2022/07/08 06:13:08;;;;;;;10.63;1.70;;;14.90;99.90;;;;;;5048173;28;20231;-84
2022/07/08 06:15:35;;;;;;;7.47;2.07;;;15.00;99.90;;;;;;5072861;28;20246;-84
2022/07/08 06:18:01;;;;;;;5.93;1.87;;;15.10;99.90;;;;;;5065476;28;20238;-84
2022/07/08 06:20:28;;;;;;;9.77;1.97;;;15.20;99.90;;;;;;5047612;28;20221;-86
2022/07/08 06:22:55;;;;;;;12.57;1.90;;;15.30;99.90;;;;;;5045687;28;20243;-84
2022/07/08 06:25:21;;;;;;;9.00;2.43;;;15.40;99.90;;;;;;5065379;28;20228;-85
2022/07/08 06:27:49;;;;;;;6.20;2.00;;;15.50;99.90;;;;;;5047634;28;20833;-84
2022/07/08 06:30:16;;;;;;;8.00;1.80;;;15.50;99.90;;;;;;5043925;28;20647;-84
2022/07/08 06:32:43;;;;;;;8.03;1.83;;;15.60;99.90;;;;;;5052174;28;20229;-84
2022/07/08 06:35:10;;;;;;;6.90;1.50;;;15.70;99.90;;;;;;5061711;28;20855;-84
2022/07/08 06:37:37;;;;;;;8.17;2.23;;;15.70;99.80;;;;;;5058288;28;20222;-86
2022/07/08 06:40:05;;;;;;;8.20;2.00;;;15.80;99.70;;;;;;5061120;28;20688;-85
2022/07/08 06:42:32;;;;;;;6.70;2.03;;;15.80;99.60;;;;;;5062615;28;20933;-85
2022/07/08 06:45:06;;;;;;;9.27;2.23;;;15.80;99.70;;;;;;5060787;28;20238;-85
2022/07/08 06:47:33;;;;;;;6.23;1.70;;;15.80;99.80;;;;;;5047603;28;20893;-86
2022/07/08 06:49:59;;;;;;;7.67;1.70;;;15.90;99.80;;;;;;5062106;28;20224;-84
2022/07/08 06:52:26;;;;;;;8.77;2.07;;;16.00;99.80;;;;;;5038463;28;20220;-85
2022/07/08 06:54:52;;;;;;;9.50;2.00;;;16.10;99.70;;;;;;5044004;28;20231;-84
2022/07/08 06:57:21;;;;;;;10.10;1.97;;;16.20;99.60;;;;;;5047674;28;20703;-84
2022/07/08 06:59:48;;;;;;;8.40;2.00;;;16.30;99.40;;;;;;5044939;28;20222;-86
2022/07/08 07:02:16;;;;;;;10.63;2.00;;;16.40;99.40;;;;;;5044989;28;20879;-85
2022/07/08 07:04:42;;;;;;;7.53;2.10;;;16.50;99.30;;;;;;5051114;28;20302;-85
2022/07/08 07:07:09;;;;;;;6.23;1.87;;;16.70;99.30;;;;;;5037351;28;20212;-84
2022/07/08 07:09:36;;;;;;;11.07;2.40;;;17.00;99.20;;;;;;5068162;28;20229;-84
2022/07/08 07:12:03;;;;;;;6.70;1.87;;;17.40;99.20;;;;;;5057361;28;20812;-85
2022/07/08 07:14:30;;;;;;;5.22;1.40;;;17.80;98.90;;;;;;5062444;28;20289;-87
2022/07/08 07:16:56;;;;;;;4.72;1.38;;;18.40;98.60;;;;;;5061751;28;20320;-85
2022/07/08 07:19:24;;;;;;;7.88;1.85;;;18.90;97.70;;;;;;5061699;28;20246;-85
2022/07/08 07:21:51;;;;;;;5.82;1.30;;;19.30;96.50;;;;;;5062741;28;20327;-85
2022/07/08 07:24:18;;;;;;;7.00;1.85;;;19.60;95.90;;;;;;5063367;28;20231;-85
2022/07/08 07:26:44;;;;;;;6.13;1.50;;;19.60;95.60;;;;;;5061155;28;20234;-84
2022/07/08 07:29:11;;;;;;;5.50;1.70;;;19.60;95.40;;;;;;5059500;28;20227;-85
2022/07/08 07:31:38;;;;;;;3.72;1.17;;;19.60;95.10;;;;;;5064576;28;20230;-85
2022/07/08 07:34:05;;;;;;;6.23;1.60;;;19.50;95.00;;;;;;5059785;28;20225;-84
2022/07/08 07:36:33;;;;;;;3.93;1.30;;;19.30;95.10;;;;;;5054657;28;20235;-85
2022/07/08 07:38:59;;;;;;;5.87;1.73;;;19.10;95.00;;;;;;5062123;28;20220;-85
2022/07/08 07:41:27;;;;;;;4.87;1.57;;;18.80;95.00;;;;;;5063863;28;20227;-84
2022/07/08 07:43:54;;;;;;;4.73;1.50;;;18.60;95.40;;;;;;5062958;28;20311;-84
2022/07/08 07:46:20;;;;;;;2.70;1.20;;;18.40;95.80;;;;;;5061985;28;20716;-84
2022/07/08 07:48:47;;;;;;;4.80;1.50;;;18.20;96.10;;;;;;5059586;28;20226;-85
2022/07/08 07:51:14;;;;;;;4.70;1.50;;;18.10;96.30;;;;;;5063675;28;20862;-85
2022/07/08 07:53:42;;;;;;;5.60;1.60;;;17.90;96.40;;;;;;5078961;28;20261;-84
2022/07/08 07:56:08;;;;;;;6.20;1.77;;;17.80;96.70;;;;;;5060512;28;20223;-84
2022/07/08 07:58:35;;;;;;;5.93;2.03;;;17.70;96.80;;;;;;5060006;28;20800;-84
2022/07/08 08:01:02;;;;;;;7.07;1.93;;;17.50;97.10;;;;;;5061457;28;20751;-84
2022/07/08 08:03:29;;;;;;;4.40;1.67;;;17.50;97.30;;;;;;5063453;28;20217;-84
2022/07/08 08:05:56;;;;;;;6.33;1.90;;;17.40;97.50;;;;;;5056011;28;20252;-84
2022/07/08 08:08:24;;;;;;;7.83;1.87;;;17.40;97.70;;;;;;5055766;28;20230;-84
2022/07/08 08:10:52;;;;;;;5.63;1.80;;;17.30;97.80;;;;;;5061841;28;20279;-85
2022/07/08 08:13:19;;;;;;;8.17;2.10;;;17.20;98.00;;;;;;5061505;28;20226;-85
2022/07/08 08:15:46;;;;;;;7.87;1.97;;;17.20;98.20;;;;;;5054317;28;20227;-87
2022/07/08 08:18:13;;;;;;;10.87;1.97;;;17.10;98.40;;;;;;5075955;28;20233;-84
2022/07/08 08:20:39;;;;;;;9.03;2.30;;;17.10;98.60;;;;;;5077606;28;20227;-84
2022/07/08 08:23:07;;;;;;;6.97;2.50;;;17.10;98.80;;;;;;5047388;28;20254;-84
2022/07/08 08:25:34;;;;;;;6.60;1.77;;;17.10;99.20;;;;;;5039739;28;20321;-85
2022/07/08 08:28:03;;;;;;;4.80;2.03;;;17.00;99.40;;;;;;5052431;28;20688;-84
2022/07/08 08:30:30;;;;;;;8.40;2.80;;;17.00;99.90;;;;;;5075585;28;20320;-84
2022/07/08 08:32:57;;;;;;;8.70;2.07;;;17.00;99.90;;;;;;5063216;28;20757;-85
2022/07/08 08:35:24;;;;;;;8.10;2.33;;;17.00;99.90;;;;;;5060810;28;20233;-84
2022/07/08 08:37:51;;;;;;;10.37;2.67;;;17.00;99.90;;;;;;5053341;28;21069;-84
2022/07/08 08:40:20;;;;;;;9.80;2.90;;;17.00;99.90;;;;;;5062852;28;20221;-84
2022/07/08 08:42:47;;;;;;;7.60;2.57;;;16.90;99.90;;;;;;5063958;28;20779;-83
2022/07/08 08:45:15;;;;;;;8.07;2.33;;;16.90;99.90;;;;;;5064703;28;20230;-84
2022/07/08 08:47:46;;;;;;;7.37;2.03;;;16.80;99.90;;;;;;5069231;28;20218;-84
2022/07/08 08:52:58;;;;;;;7.17;2.17;;;16.70;99.90;;;;;;5070040;28;20222;-84
2022/07/08 08:55:27;;;;;;;11.17;2.30;;;16.60;99.90;;;;;;5068589;28;20700;-84
2022/07/08 08:57:57;;;;;;;6.43;2.37;;;16.60;99.90;;;;;;5065006;28;20225;-83
2022/07/08 09:00:25;;;;;;;6.67;1.90;;;16.50;99.90;;;;;;5072291;28;20226;-83
2022/07/08 09:02:52;;;;;;;4.53;1.80;;;16.50;99.90;;;;;;5074817;28;20222;-83
2022/07/08 09:05:20;;;;;;;5.17;1.70;;;16.50;99.90;;;;;;5073077;28;20603;-84
2022/07/08 09:07:47;;;;;;;10.93;3.00;;;16.50;99.90;;;;;;5074191;28;20232;-83
2022/07/08 09:10:15;;;;;;;14.60;3.07;;;16.50;99.90;;;;;;5074227;28;20314;-84
2022/07/08 09:13:00;;;;;;;8.63;2.30;;;16.50;99.90;;;;;;5074290;28;20251;-84
2022/07/08 09:15:31;;;;;;;5.77;1.70;;;16.50;99.90;;;;;;5072586;28;20219;-83
2022/07/08 09:17:59;;;;;;;3.73;1.80;;;16.50;99.90;;;;;;5074159;28;20703;-83
2022/07/08 09:20:26;;;;;;;3.80;1.70;;;16.60;99.90;;;;;;5071970;28;20230;-83
2022/07/08 09:22:52;;;;;;;4.47;1.60;;;16.60;99.90;;;;;;5074292;28;20580;-83
2022/07/08 09:25:19;;;;;;;4.40;1.73;;;16.60;99.90;;;;;;5072036;28;20233;-83
2022/07/08 09:27:46;;;;;;;2.90;1.70;;;16.60;99.90;;;;;;5072002;28;20306;-84
2022/07/08 09:30:15;;;;;;;4.53;1.60;;;16.70;99.90;;;;;;5066996;28;20239;-83
2022/07/08 09:32:57;;;;;;;4.10;1.90;;;16.60;99.90;;;;;;5070112;28;20225;-83
2022/07/08 09:35:31;;;;;;;5.17;2.20;;;16.70;99.90;;;;;;5070283;28;20242;-83
2022/07/08 09:38:01;;;;;;;4.33;2.10;;;16.70;99.90;;;;;;5074006;28;20225;-83
2022/07/08 09:40:28;;;;;;;6.77;2.10;;;16.80;99.90;;;;;;5070064;28;20898;-83
2022/07/08 09:42:54;;;;;;;5.43;1.87;;;16.90;99.90;;;;;;5072631;28;20226;-84
2022/07/08 09:45:27;;;;;;;4.63;1.93;;;17.00;99.90;;;;;;5069981;28;20234;-83
2022/07/08 09:48:01;;;;;;;5.30;1.80;;;17.10;99.90;;;;;;5070347;28;20226;-83
2022/07/08 09:50:32;;;;;;;6.07;2.20;;;17.20;99.90;;;;;;5060293;28;20695;-83
2022/07/08 09:52:59;;;;;;;3.73;1.90;;;17.20;99.90;;;;;;5055515;28;20218;-82
2022/07/08 09:55:31;;;;;;;3.37;1.53;;;17.20;99.90;;;;;;5068712;28;20246;-83
2022/07/08 09:58:00;;;;;;;4.97;1.67;;;17.20;99.90;;;;;;5078418;28;20215;-83
2022/07/08 10:00:26;;;;;;;3.90;1.73;;;17.20;99.90;;;;;;5052196;28;20242;-83
2022/07/08 10:02:55;;;;;;;4.00;1.70;;;17.20;99.90;;;;;;5071128;28;20339;-83
2022/07/08 10:05:22;;;;;;;3.87;1.67;;;17.20;99.90;;;;;;5070736;28;20221;-83
2022/07/08 10:07:49;;;;;;;3.50;1.80;;;17.20;99.90;;;;;;5066496;28;20223;-83
2022/07/08 10:10:15;;;;;;;4.70;1.80;;;17.20;99.90;;;;;;5069307;28;20233;-83
2022/07/08 10:12:43;;;;;;;6.50;1.77;;;17.30;99.90;;;;;;5072313;28;20226;-83
2022/07/08 10:15:11;;;;;;;3.60;1.40;;;17.30;99.90;;;;;;5068791;28;20226;-83
2022/07/08 10:17:43;;;;;;;2.10;1.40;;;17.30;99.90;;;;;;5068745;28;20313;-85
2022/07/08 10:20:12;;;;;;;14.80;2.33;;;17.30;99.90;;;;;;5061150;28;20225;-84
2022/07/08 10:22:41;;;;;;;3.90;1.20;;;17.30;99.90;;;;;;5069558;28;20227;-83
2022/07/08 10:25:09;;;;;;;2.90;1.20;;;17.40;99.90;;;;;;5068037;28;20916;-83
2022/07/08 10:27:36;;;;;;;2.90;1.20;;;17.50;99.90;;;;;;5071539;28;20219;-82
2022/07/08 10:30:16;;;;;;;2.27;1.07;;;17.70;99.90;;;;;;5056265;28;20227;-84
2022/07/08 10:32:46;;;;;;;5.30;1.23;;;17.80;99.90;;;;;;5070745;28;20226;-84
2022/07/08 10:35:18;;;;;;;6.43;1.73;;;17.90;99.90;;;;;;5068857;28;20306;-83
2022/07/08 10:37:50;;;;;;;3.57;1.10;;;17.90;99.90;;;;;;5058600;28;20229;-83
2022/07/08 10:40:49;;;;;;;1.47;0.70;;;17.80;99.90;;;;;;5064686;28;20253;-84
2022/07/08 10:43:23;;;;;;;4.60;1.57;;;17.70;99.90;;;;;;5061451;28;20226;-83
2022/07/08 10:46:05;;;;;;;1.37;0.83;;;17.60;99.90;;;;;;5062541;28;20223;-84
2022/07/08 10:48:56;;;;;;;1.93;1.00;;;17.50;99.90;;;;;;5062068;28;20233;-84
2022/07/08 10:51:47;;;;;;;2.60;1.27;;;17.40;99.90;;;;;;5060019;28;20223;-85
2022/07/08 10:54:35;;;;;;;2.43;1.17;;;17.20;99.90;;;;;;5044977;28;20222;-84
2022/07/08 10:57:02;;;;;;;4.40;1.10;;;17.10;99.90;;;;;;5041509;28;20871;-85
2022/07/08 10:59:31;;;;;;;3.10;1.30;;;17.10;99.90;;;;;;5058501;28;20322;-84
2022/07/08 11:02:01;;;;;;;16.60;2.40;;;17.10;99.90;;;;;;5048155;28;21039;-84
2022/07/08 11:04:31;;;;;;;29.80;3.27;;;17.10;99.90;;;;;;5053418;28;20239;-84
2022/07/08 11:07:34;;;;;;;2.53;1.43;;;17.30;99.90;;;;;;5028873;28;20680;-84
2022/07/08 11:10:08;;;;;;;3.43;1.47;;;17.70;99.90;;;;;;5044011;28;20211;-84
2022/07/08 11:12:35;;;;;;;3.73;1.30;;;18.20;99.90;;;;;;5052613;28;20247;-84
2022/07/08 11:15:05;;;;;;;3.30;1.43;;;18.40;99.90;;;;;;5041034;28;20232;-84
2022/07/08 11:17:33;;;;;;;6.00;1.60;;;18.70;99.90;;;;;;5038623;28;20228;-85
2022/07/08 11:20:02;;;;;;;2.20;1.20;;;18.90;99.90;;;;;;5052603;28;20220;-84
2022/07/08 11:22:34;;;;;;;2.30;1.30;;;19.00;99.90;;;;;;5064457;28;20219;-85
2022/07/08 11:25:01;;;;;;;3.88;1.30;;;19.10;99.90;;;;;;5046202;28;20224;-84
2022/07/08 11:27:33;;;;;;;3.00;2.00;;;19.10;99.90;;;;;;5055072;28;20251;-85
2022/07/08 11:30:01;;;;;;;2.88;1.35;;;19.20;99.90;;;;;;5061555;28;20281;-85
2022/07/08 11:32:30;;;;;;;4.45;1.35;;;19.20;99.90;;;;;;5062823;28;20223;-85
2022/07/08 11:34:57;;;;;;;3.23;1.40;;;19.20;99.90;;;;;;5060578;28;20238;-85
2022/07/08 11:37:24;;;;;;;5.63;1.67;;;19.20;99.90;;;;;;5059060;28;20239;-85
2022/07/08 11:39:51;;;;;;;3.05;1.05;;;19.30;99.90;;;;;;5058764;28;20223;-84
2022/07/08 11:42:18;;;;;;;4.10;1.45;;;19.40;99.90;;;;;;5064147;28;20266;-85
2022/07/08 11:44:47;;;;;;;2.83;1.23;;;19.60;99.90;;;;;;5062421;28;20223;-84
2022/07/08 11:47:18;;;;;;;2.85;0.95;;;19.90;99.90;;;;;;5065034;28;20230;-85
2022/07/08 11:49:46;;;;;;;4.88;1.52;;;20.10;99.90;;;;;;5048237;28;20281;-84
2022/07/08 11:52:15;;;;;;;2.42;1.13;;;20.40;99.90;;;;;;5060900;28;20577;-83
2022/07/08 11:54:45;;;;;;;1.98;0.90;;;20.60;99.90;;;;;;5064488;28;20711;-84
2022/07/08 11:57:11;;;;;;;6.45;1.05;;;20.80;99.90;;;;;;5066138;28;20224;-84
2022/07/08 11:59:38;;;;;;;2.38;1.13;;;20.90;99.90;;;;;;5066056;28;20223;-84
2022/07/08 12:02:06;;;;;;;2.40;0.90;;;21.00;99.90;;;;;;5066877;28;20816;-84
2022/07/08 12:04:34;;;;;;;3.42;0.80;;;21.20;99.90;;;;;;5066979;28;20235;-86
2022/07/08 12:07:01;;;;;;;1.25;0.80;;;21.40;99.90;;;;;;5060816;28;20224;-84
2022/07/08 12:09:31;;;;;;;1.73;1.00;;;21.70;99.90;;;;;;5070244;28;20560;-83
2022/07/08 12:12:06;;;;;;;2.33;0.80;;;21.80;99.30;;;;;;5067024;28;20239;-83
2022/07/08 12:14:33;;;;;;;1.30;0.90;;;22.00;98.60;;;;;;5055120;28;20849;-83
2022/07/08 12:17:00;;;;;;;1.23;0.60;;;22.00;98.60;;;;;;5069514;28;20315;-83
2022/07/08 12:19:30;;;;;;;1.90;0.80;;;22.10;98.40;;;;;;5058344;28;20619;-82
2022/07/08 12:21:58;;;;;;;2.35;1.15;;;22.10;97.90;;;;;;5073175;28;20211;-82
2022/07/08 12:24:27;;;;;;;4.55;1.55;;;22.00;97.60;;;;;;5070741;28;20223;-82
2022/07/08 12:26:56;;;;;;;3.55;1.10;;;22.00;97.40;;;;;;5055036;28;20219;-83
2022/07/08 12:29:23;;;;;;;3.92;1.50;;;22.00;97.30;;;;;;5071327;28;20232;-83
2022/07/08 12:31:50;;;;;;;3.25;1.35;;;22.10;97.40;;;;;;5072393;28;20227;-83
2022/07/08 12:34:19;;;;;;;3.03;1.10;;;22.20;97.30;;;;;;5071479;28;20285;-83
2022/07/08 12:36:47;;;;;;;2.85;0.95;;;22.30;97.10;;;;;;5070735;28;20228;-83
2022/07/08 12:39:15;;;;;;;2.55;1.30;;;22.40;96.50;;;;;;5072170;28;20239;-83
2022/07/08 12:41:44;;;;;;;2.03;1.30;;;22.60;96.20;;;;;;5071411;28;20237;-83
2022/07/08 12:44:31;;;;;;;2.90;1.33;;;22.60;95.90;;;;;;5071638;28;20722;-83
2022/07/08 12:46:58;;;;;;;2.65;1.25;;;22.70;95.40;;;;;;5069395;28;20219;-81
2022/07/08 12:49:25;;;;;;;3.42;1.17;;;22.70;95.90;;;;;;5081714;28;20218;-83
2022/07/08 12:51:54;;;;;;;4.25;1.50;;;22.70;95.40;;;;;;5089400;28;21775;-83
2022/07/08 12:54:22;;;;;;;4.60;1.85;;;22.60;95.30;;;;;;5071219;28;20847;-82